FDX154 EGKK-EGPH
Flight info
| Callsign | FDX154 |
|---|---|
| Flight time | 0h 58m |
| Altitude | 34000 |
| Route | LAM L10 BPK UN601 RIBEL DCT INPIP |
| Aircraft | B738/M-SDE2E3FGHIRWXY/LB1 |
Departure
| Time | 2026-05-04 13:17 |
|---|---|
| Airport | London Gatwick Airport (EGKK) |
Arrival
| Time | 2026-05-04 14:15 |
|---|---|
| Airport | Edinburgh Airport (EGPH) |
| Time | Latitude | Longitude | Altitude | Speed | Heading |
|---|---|---|---|---|---|
| 2026-05-04 12:51 | 51.15265 | -0.18610 | 204 ft | 0 kts | 77° |
| 2026-05-04 13:04 | 51.15263 | -0.18623 | 215 ft | 4 kts | 77° |
| 2026-05-04 13:04 | 51.15257 | -0.18665 | 212 ft | 4 kts | 77° |
| 2026-05-04 13:04 | 51.15253 | -0.18701 | 207 ft | 4 kts | 98° |
| 2026-05-04 13:05 | 51.15264 | -0.18730 | 215 ft | 4 kts | 159° |
| 2026-05-04 13:05 | 51.15282 | -0.18738 | 206 ft | 1 kts | 168° |
| 2026-05-04 13:05 | 51.15284 | -0.18739 | 206 ft | 0 kts | 168° |
| 2026-05-04 13:08 | 51.15274 | -0.18736 | 207 ft | 3 kts | 168° |
| 2026-05-04 13:08 | 51.15247 | -0.18727 | 208 ft | 5 kts | 168° |
| 2026-05-04 13:08 | 51.15217 | -0.18716 | 204 ft | 4 kts | 168° |
| 2026-05-04 13:09 | 51.15203 | -0.18711 | 204 ft | 0 kts | 168° |
| 2026-05-04 13:09 | 51.15202 | -0.18711 | 204 ft | 0 kts | 168° |
| 2026-05-04 13:09 | 51.15184 | -0.18705 | 215 ft | 6 kts | 168° |
| 2026-05-04 13:10 | 51.15131 | -0.18733 | 212 ft | 10 kts | 242° |
| 2026-05-04 13:10 | 51.15117 | -0.18840 | 209 ft | 10 kts | 258° |
| 2026-05-04 13:10 | 51.15101 | -0.18954 | 209 ft | 11 kts | 258° |
| 2026-05-04 13:10 | 51.15086 | -0.19067 | 215 ft | 10 kts | 257° |
| 2026-05-04 13:11 | 51.15071 | -0.19176 | 209 ft | 10 kts | 258° |
| 2026-05-04 13:11 | 51.15055 | -0.19292 | 209 ft | 12 kts | 258° |
| 2026-05-04 13:11 | 51.15035 | -0.19437 | 210 ft | 14 kts | 257° |
| 2026-05-04 13:11 | 51.15014 | -0.19589 | 209 ft | 14 kts | 257° |
| 2026-05-04 13:12 | 51.14993 | -0.19745 | 204 ft | 15 kts | 258° |
| 2026-05-04 13:12 | 51.14969 | -0.19905 | 209 ft | 15 kts | 255° |
| 2026-05-04 13:12 | 51.14946 | -0.20069 | 207 ft | 15 kts | 258° |
| 2026-05-04 13:12 | 51.14925 | -0.20226 | 209 ft | 14 kts | 257° |
| 2026-05-04 13:13 | 51.14904 | -0.20377 | 204 ft | 14 kts | 258° |
| 2026-05-04 13:13 | 51.14886 | -0.20509 | 204 ft | 9 kts | 258° |
| 2026-05-04 13:13 | 51.14872 | -0.20598 | 208 ft | 8 kts | 248° |
| 2026-05-04 13:13 | 51.14833 | -0.20651 | 207 ft | 8 kts | 207° |
| 2026-05-04 13:14 | 51.14777 | -0.20698 | 209 ft | 10 kts | 207° |
| 2026-05-04 13:14 | 51.14728 | -0.20724 | 211 ft | 6 kts | 174° |
| 2026-05-04 13:14 | 51.14697 | -0.20691 | 211 ft | 5 kts | 126° |
| 2026-05-04 13:14 | 51.14695 | -0.20687 | 211 ft | 0 kts | 121° |
| 2026-05-04 13:15 | 51.14694 | -0.20683 | 211 ft | 2 kts | 116° |
| 2026-05-04 13:15 | 51.14676 | -0.20591 | 207 ft | 13 kts | 106° |
| 2026-05-04 13:15 | 51.14648 | -0.20480 | 213 ft | 7 kts | 127° |
| 2026-05-04 13:16 | 51.14628 | -0.20436 | 210 ft | 4 kts | 114° |
| 2026-05-04 13:16 | 51.14629 | -0.20411 | 208 ft | 0 kts | 81° |
| 2026-05-04 13:16 | 51.14629 | -0.20406 | 208 ft | 11 kts | 81° |
| 2026-05-04 13:16 | 51.14740 | -0.19600 | 208 ft | 133 kts | 77° |
| 2026-05-04 13:17 | 51.14984 | -0.17696 | 603 ft | 202 kts | 77° |
| 2026-05-04 13:17 | 51.15311 | -0.15316 | 1622 ft | 226 kts | 77° |
| 2026-05-04 13:17 | 51.15648 | -0.12902 | 3051 ft | 230 kts | 77° |
| 2026-05-04 13:17 | 51.15996 | -0.10430 | 4014 ft | 239 kts | 77° |
| 2026-05-04 13:18 | 51.16395 | -0.07701 | 4649 ft | 263 kts | 74° |
| 2026-05-04 13:18 | 51.17247 | -0.05109 | 4976 ft | 268 kts | 53° |
| 2026-05-04 13:18 | 51.18417 | -0.02765 | 5032 ft | 272 kts | 51° |
| 2026-05-04 13:18 | 51.19609 | -0.00388 | 5667 ft | 276 kts | 51° |
| 2026-05-04 13:19 | 51.20815 | 0.02050 | 5946 ft | 280 kts | 52° |
| 2026-05-04 13:19 | 51.22010 | 0.04505 | 5962 ft | 279 kts | 52° |
| 2026-05-04 13:19 | 51.23394 | 0.06643 | 6126 ft | 280 kts | 26° |
| 2026-05-04 13:19 | 51.25282 | 0.07182 | 7107 ft | 279 kts | 356° |
| 2026-05-04 13:20 | 51.27214 | 0.06760 | 8305 ft | 281 kts | 347° |
| 2026-05-04 13:20 | 51.29141 | 0.06077 | 9458 ft | 287 kts | 346° |
| 2026-05-04 13:20 | 51.31106 | 0.05321 | 10476 ft | 296 kts | 345° |
| 2026-05-04 13:20 | 51.33171 | 0.04523 | 10908 ft | 325 kts | 346° |
| 2026-05-04 13:21 | 51.35456 | 0.03655 | 11478 ft | 344 kts | 345° |
| 2026-05-04 13:21 | 51.37815 | 0.02777 | 12417 ft | 351 kts | 346° |
| 2026-05-04 13:21 | 51.40197 | 0.01903 | 12887 ft | 352 kts | 346° |
| 2026-05-04 13:21 | 51.42607 | 0.01028 | 13402 ft | 358 kts | 346° |
| 2026-05-04 13:22 | 51.45067 | 0.00140 | 14364 ft | 363 kts | 346° |
| 2026-05-04 13:22 | 51.47543 | -0.00753 | 15302 ft | 367 kts | 346° |
| 2026-05-04 13:22 | 51.50057 | -0.01660 | 16202 ft | 374 kts | 346° |
| 2026-05-04 13:22 | 51.52618 | -0.02583 | 17059 ft | 381 kts | 346° |
| 2026-05-04 13:23 | 51.55234 | -0.03527 | 17932 ft | 386 kts | 346° |
| 2026-05-04 13:23 | 51.57865 | -0.04477 | 18725 ft | 392 kts | 346° |
| 2026-05-04 13:23 | 51.60532 | -0.05442 | 19567 ft | 394 kts | 346° |
| 2026-05-04 13:23 | 51.63213 | -0.06414 | 20393 ft | 397 kts | 346° |
| 2026-05-04 13:24 | 51.65890 | -0.07385 | 21161 ft | 401 kts | 346° |
| 2026-05-04 13:24 | 51.68628 | -0.08380 | 21917 ft | 405 kts | 346° |
| 2026-05-04 13:24 | 51.71392 | -0.09385 | 22669 ft | 409 kts | 346° |
| 2026-05-04 13:25 | 51.76824 | -0.12258 | 24016 ft | 414 kts | 330° |
| 2026-05-04 13:25 | 51.78622 | -0.13913 | 24439 ft | 416 kts | 327° |
| 2026-05-04 13:25 | 51.81134 | -0.16341 | 24984 ft | 421 kts | 327° |
| 2026-05-04 13:25 | 51.83656 | -0.18809 | 25524 ft | 424 kts | 327° |
| 2026-05-04 13:26 | 51.86195 | -0.21283 | 26083 ft | 428 kts | 327° |
| 2026-05-04 13:26 | 51.88762 | -0.23764 | 26621 ft | 432 kts | 327° |
| 2026-05-04 13:26 | 51.91363 | -0.26262 | 27129 ft | 436 kts | 327° |
| 2026-05-04 13:26 | 51.93992 | -0.28778 | 27639 ft | 440 kts | 327° |
| 2026-05-04 13:27 | 51.96637 | -0.31309 | 28134 ft | 443 kts | 327° |
| 2026-05-04 13:27 | 51.99311 | -0.33868 | 28619 ft | 447 kts | 327° |
| 2026-05-04 13:27 | 52.01963 | -0.36411 | 29082 ft | 450 kts | 326° |
| 2026-05-04 13:27 | 52.04672 | -0.39014 | 29547 ft | 454 kts | 327° |
| 2026-05-04 13:28 | 52.07395 | -0.41633 | 30114 ft | 454 kts | 327° |
| 2026-05-04 13:28 | 52.10124 | -0.44265 | 30524 ft | 456 kts | 327° |
| 2026-05-04 13:28 | 52.12859 | -0.46916 | 30846 ft | 460 kts | 327° |
| 2026-05-04 13:28 | 52.15615 | -0.49594 | 31162 ft | 463 kts | 327° |
| 2026-05-04 13:29 | 52.18393 | -0.52297 | 31496 ft | 466 kts | 327° |
| 2026-05-04 13:29 | 52.21187 | -0.55018 | 31844 ft | 468 kts | 327° |
| 2026-05-04 13:29 | 52.23981 | -0.57740 | 32282 ft | 467 kts | 327° |
| 2026-05-04 13:29 | 52.26769 | -0.60460 | 32779 ft | 466 kts | 328° |
| 2026-05-04 13:30 | 52.29546 | -0.63174 | 33292 ft | 464 kts | 328° |
| 2026-05-04 13:30 | 52.32307 | -0.65874 | 33817 ft | 462 kts | 328° |
| 2026-05-04 13:30 | 52.35034 | -0.68546 | 34054 ft | 465 kts | 328° |
| 2026-05-04 13:30 | 52.37822 | -0.71283 | 34048 ft | 469 kts | 328° |
| 2026-05-04 13:31 | 52.43407 | -0.76777 | 34045 ft | 464 kts | 328° |
| 2026-05-04 13:31 | 52.48909 | -0.82207 | 34056 ft | 461 kts | 328° |
| 2026-05-04 13:32 | 52.54408 | -0.87652 | 34056 ft | 462 kts | 329° |
| 2026-05-04 13:32 | 52.59921 | -0.93123 | 34057 ft | 463 kts | 329° |
| 2026-05-04 13:33 | 52.65404 | -0.98563 | 34036 ft | 463 kts | 329° |
| 2026-05-04 13:33 | 52.70931 | -1.04041 | 34048 ft | 463 kts | 329° |
| 2026-05-04 13:34 | 52.76456 | -1.09551 | 34063 ft | 463 kts | 330° |
| 2026-05-04 13:34 | 52.81927 | -1.15059 | 34075 ft | 462 kts | 330° |
| 2026-05-04 13:35 | 52.90146 | -1.23361 | 34080 ft | 461 kts | 330° |
| 2026-05-04 13:36 | 52.95628 | -1.28914 | 34068 ft | 460 kts | 330° |
| 2026-05-04 13:36 | 53.01088 | -1.34453 | 34067 ft | 460 kts | 331° |
| 2026-05-04 13:37 | 53.06534 | -1.39985 | 34065 ft | 458 kts | 331° |
| 2026-05-04 13:37 | 53.11972 | -1.45527 | 34083 ft | 458 kts | 331° |
| 2026-05-04 13:38 | 53.17400 | -1.51078 | 34069 ft | 457 kts | 331° |
| 2026-05-04 13:38 | 53.22819 | -1.56630 | 34062 ft | 457 kts | 332° |
| 2026-05-04 13:39 | 53.28198 | -1.62167 | 34067 ft | 456 kts | 332° |
| 2026-05-04 13:39 | 53.33612 | -1.67748 | 34071 ft | 457 kts | 332° |
| 2026-05-04 13:40 | 53.39029 | -1.73343 | 34071 ft | 457 kts | 332° |
| 2026-05-04 13:40 | 53.44449 | -1.78959 | 34060 ft | 458 kts | 332° |
| 2026-05-04 13:41 | 53.49879 | -1.84609 | 34056 ft | 459 kts | 332° |
| 2026-05-04 13:41 | 53.55304 | -1.90283 | 34049 ft | 459 kts | 332° |
| 2026-05-04 13:42 | 53.63419 | -1.98785 | 34060 ft | 460 kts | 332° |
| 2026-05-04 13:42 | 53.68852 | -2.04468 | 34057 ft | 460 kts | 332° |
| 2026-05-04 13:43 | 53.74298 | -2.10139 | 34040 ft | 458 kts | 334° |
| 2026-05-04 13:43 | 53.80103 | -2.14364 | 34080 ft | 453 kts | 342° |
| 2026-05-04 13:44 | 53.86008 | -2.18165 | 34098 ft | 453 kts | 342° |
| 2026-05-04 13:44 | 53.91929 | -2.21845 | 34171 ft | 453 kts | 344° |
| 2026-05-04 13:45 | 53.97884 | -2.25167 | 34212 ft | 452 kts | 346° |
| 2026-05-04 13:45 | 54.03926 | -2.28087 | 34208 ft | 450 kts | 347° |
| 2026-05-04 13:46 | 54.09957 | -2.30695 | 33912 ft | 441 kts | 349° |
| 2026-05-04 13:46 | 54.12935 | -2.31896 | 33255 ft | 438 kts | 349° |
| 2026-05-04 13:46 | 54.15903 | -2.33035 | 32288 ft | 438 kts | 350° |
| 2026-05-04 13:47 | 54.18890 | -2.34127 | 31288 ft | 439 kts | 351° |
| 2026-05-04 13:47 | 54.21883 | -2.35168 | 30583 ft | 436 kts | 351° |
| 2026-05-04 13:47 | 54.24821 | -2.36134 | 30233 ft | 423 kts | 352° |
| 2026-05-04 13:47 | 54.27668 | -2.37008 | 30056 ft | 409 kts | 352° |
| 2026-05-04 13:48 | 54.30491 | -2.37815 | 29954 ft | 416 kts | 353° |
| 2026-05-04 13:48 | 54.33362 | -2.38562 | 30337 ft | 416 kts | 354° |
| 2026-05-04 13:48 | 54.36195 | -2.39228 | 31142 ft | 405 kts | 354° |
| 2026-05-04 13:48 | 54.38918 | -2.39806 | 31956 ft | 396 kts | 355° |
| 2026-05-04 13:49 | 54.41656 | -2.40320 | 32379 ft | 398 kts | 356° |
| 2026-05-04 13:49 | 54.44490 | -2.40776 | 32304 ft | 411 kts | 357° |
| 2026-05-04 13:49 | 54.47370 | -2.41170 | 32051 ft | 428 kts | 358° |
| 2026-05-04 13:49 | 54.50379 | -2.41514 | 32058 ft | 435 kts | 358° |
| 2026-05-04 13:50 | 54.53392 | -2.41801 | 32482 ft | 430 kts | 358° |
| 2026-05-04 13:50 | 54.56368 | -2.42018 | 33137 ft | 423 kts | 359° |
| 2026-05-04 13:50 | 54.59296 | -2.42161 | 33709 ft | 420 kts | 360° |
| 2026-05-04 13:50 | 54.62234 | -2.42236 | 33949 ft | 424 kts | 0° |
| 2026-05-04 13:51 | 54.65175 | -2.42241 | 33792 ft | 428 kts | 1° |
| 2026-05-04 13:51 | 54.68162 | -2.42173 | 33244 ft | 431 kts | 2° |
| 2026-05-04 13:51 | 54.71170 | -2.42031 | 32438 ft | 433 kts | 3° |
| 2026-05-04 13:51 | 54.74183 | -2.41815 | 31567 ft | 432 kts | 3° |
| 2026-05-04 13:52 | 54.80114 | -2.41133 | 30226 ft | 421 kts | 5° |
| 2026-05-04 13:52 | 54.83022 | -2.40672 | 29854 ft | 418 kts | 5° |
| 2026-05-04 13:53 | 54.88770 | -2.39516 | 30339 ft | 412 kts | 7° |
| 2026-05-04 13:53 | 54.91542 | -2.38853 | 31023 ft | 391 kts | 8° |
| 2026-05-04 13:53 | 54.94163 | -2.38164 | 31070 ft | 374 kts | 8° |
| 2026-05-04 13:54 | 54.99439 | -2.36610 | 28266 ft | 408 kts | 9° |
| 2026-05-04 13:54 | 55.02298 | -2.35666 | 26740 ft | 425 kts | 9° |
| 2026-05-04 13:54 | 55.07969 | -2.33638 | 26145 ft | 396 kts | 7° |
| 2026-05-04 13:55 | 55.10601 | -2.33861 | 26028 ft | 367 kts | 342° |
| 2026-05-04 13:55 | 55.14256 | -2.38958 | 26019 ft | 323 kts | 310° |
| 2026-05-04 13:55 | 55.15702 | -2.41996 | 26035 ft | 330 kts | 313° |
| 2026-05-04 13:56 | 55.17322 | -2.45019 | 25445 ft | 359 kts | 316° |
| 2026-05-04 13:56 | 55.19196 | -2.48065 | 24639 ft | 370 kts | 319° |
| 2026-05-04 13:56 | 55.23181 | -2.53630 | 22945 ft | 362 kts | 323° |
| 2026-05-04 13:57 | 55.25208 | -2.56221 | 22053 ft | 359 kts | 323° |
| 2026-05-04 13:57 | 55.27230 | -2.58740 | 21198 ft | 354 kts | 323° |
| 2026-05-04 13:58 | 55.33197 | -2.66060 | 18808 ft | 342 kts | 323° |
| 2026-05-04 13:58 | 55.37062 | -2.70800 | 17158 ft | 335 kts | 323° |
| 2026-05-04 13:58 | 55.38938 | -2.73105 | 16341 ft | 331 kts | 323° |
| 2026-05-04 13:59 | 55.40821 | -2.75422 | 15531 ft | 328 kts | 323° |
| 2026-05-04 13:59 | 55.42682 | -2.77715 | 14742 ft | 325 kts | 323° |
| 2026-05-04 13:59 | 55.46351 | -2.82243 | 13136 ft | 318 kts | 323° |
| 2026-05-04 14:00 | 55.48155 | -2.84473 | 12303 ft | 315 kts | 322° |
| 2026-05-04 14:00 | 55.51113 | -2.88135 | 10975 ft | 310 kts | 322° |
| 2026-05-04 14:00 | 55.52867 | -2.90311 | 10196 ft | 307 kts | 322° |
| 2026-05-04 14:01 | 55.54591 | -2.92452 | 9735 ft | 294 kts | 322° |
| 2026-05-04 14:01 | 55.56215 | -2.94464 | 9455 ft | 276 kts | 321° |
| 2026-05-04 14:01 | 55.59233 | -2.98214 | 8918 ft | 258 kts | 321° |
| 2026-05-04 14:02 | 55.60697 | -3.00042 | 8661 ft | 256 kts | 321° |
| 2026-05-04 14:02 | 55.62130 | -3.01845 | 8395 ft | 255 kts | 321° |
| 2026-05-04 14:02 | 55.63574 | -3.03650 | 8133 ft | 254 kts | 321° |
| 2026-05-04 14:02 | 55.65045 | -3.05481 | 7889 ft | 257 kts | 322° |
| 2026-05-04 14:03 | 55.66494 | -3.07301 | 7623 ft | 261 kts | 321° |
| 2026-05-04 14:03 | 55.67986 | -3.09174 | 7408 ft | 261 kts | 321° |
| 2026-05-04 14:03 | 55.69459 | -3.11021 | 7165 ft | 257 kts | 321° |
| 2026-05-04 14:03 | 55.70911 | -3.12773 | 7062 ft | 250 kts | 328° |
| 2026-05-04 14:04 | 55.74335 | -3.13336 | 6719 ft | 252 kts | 4° |
| 2026-05-04 14:04 | 55.76079 | -3.12888 | 6545 ft | 254 kts | 4° |
| 2026-05-04 14:04 | 55.77826 | -3.12418 | 6343 ft | 254 kts | 5° |
| 2026-05-04 14:05 | 55.81265 | -3.11504 | 5920 ft | 249 kts | 4° |
| 2026-05-04 14:05 | 55.82944 | -3.11064 | 5744 ft | 235 kts | 4° |
| 2026-05-04 14:05 | 55.84504 | -3.10657 | 5552 ft | 219 kts | 4° |
| 2026-05-04 14:06 | 55.85961 | -3.10284 | 5367 ft | 204 kts | 4° |
| 2026-05-04 14:06 | 55.87319 | -3.09936 | 5219 ft | 190 kts | 4° |
| 2026-05-04 14:06 | 55.88619 | -3.09606 | 5096 ft | 187 kts | 2° |
| 2026-05-04 14:06 | 55.89905 | -3.09283 | 4955 ft | 187 kts | 2° |
| 2026-05-04 14:07 | 55.91187 | -3.08960 | 4833 ft | 184 kts | 4° |
| 2026-05-04 14:07 | 55.92439 | -3.08644 | 4699 ft | 180 kts | 3° |
| 2026-05-04 14:07 | 55.93677 | -3.08332 | 4549 ft | 180 kts | 2° |
| 2026-05-04 14:07 | 55.94920 | -3.08019 | 4425 ft | 181 kts | 4° |
| 2026-05-04 14:08 | 55.96168 | -3.07704 | 4279 ft | 181 kts | 3° |
| 2026-05-04 14:08 | 55.97413 | -3.07390 | 4128 ft | 180 kts | 2° |
| 2026-05-04 14:08 | 55.98654 | -3.07074 | 3993 ft | 179 kts | 2° |
| 2026-05-04 14:08 | 55.99877 | -3.06763 | 3865 ft | 175 kts | 2° |
| 2026-05-04 14:09 | 56.02158 | -3.06180 | 3583 ft | 159 kts | 2° |
| 2026-05-04 14:09 | 56.03236 | -3.06090 | 3462 ft | 151 kts | 339° |
| 2026-05-04 14:10 | 56.04036 | -3.08755 | 3283 ft | 136 kts | 251° |
| 2026-05-04 14:10 | 56.03706 | -3.10384 | 3181 ft | 143 kts | 251° |
| 2026-05-04 14:10 | 56.03315 | -3.12019 | 3059 ft | 144 kts | 248° |
| 2026-05-04 14:10 | 56.02905 | -3.13649 | 3028 ft | 149 kts | 248° |
| 2026-05-04 14:11 | 56.02428 | -3.15308 | 2828 ft | 149 kts | 245° |
| 2026-05-04 14:11 | 56.01385 | -3.18476 | 2431 ft | 149 kts | 242° |
| 2026-05-04 14:11 | 56.00839 | -3.20082 | 2250 ft | 151 kts | 242° |
| 2026-05-04 14:12 | 56.00290 | -3.21692 | 2027 ft | 151 kts | 243° |
| 2026-05-04 14:12 | 55.99753 | -3.23266 | 1823 ft | 145 kts | 243° |
| 2026-05-04 14:12 | 55.98811 | -3.26030 | 1445 ft | 119 kts | 243° |
| 2026-05-04 14:13 | 55.98374 | -3.27316 | 1292 ft | 121 kts | 244° |
| 2026-05-04 14:13 | 55.97931 | -3.28623 | 1112 ft | 125 kts | 242° |
| 2026-05-04 14:13 | 55.97476 | -3.29956 | 944 ft | 128 kts | 242° |
| 2026-05-04 14:13 | 55.97018 | -3.31281 | 827 ft | 124 kts | 243° |
| 2026-05-04 14:14 | 55.96564 | -3.32571 | 636 ft | 122 kts | 244° |
| 2026-05-04 14:14 | 55.95670 | -3.35221 | 240 ft | 127 kts | 244° |
| 2026-05-04 14:14 | 55.95242 | -3.36552 | 111 ft | 115 kts | 243° |
| 2026-05-04 14:15 | 55.94792 | -3.37862 | 114 ft | 27 kts | 240° |
| 2026-05-04 14:15 | 55.94705 | -3.38054 | 112 ft | 7 kts | 188° |
| 2026-05-04 14:16 | 55.94614 | -3.37973 | 114 ft | 7 kts | 150° |
| 2026-05-04 14:16 | 55.94592 | -3.37905 | 115 ft | 7 kts | 79° |
| 2026-05-04 14:17 | 55.94652 | -3.37711 | 114 ft | 13 kts | 59° |
| 2026-05-04 14:17 | 55.94703 | -3.37558 | 113 ft | 15 kts | 59° |
| 2026-05-04 14:17 | 55.94804 | -3.37261 | 113 ft | 13 kts | 59° |
| 2026-05-04 14:18 | 55.94850 | -3.37120 | 114 ft | 13 kts | 59° |
| 2026-05-04 14:18 | 55.94946 | -3.36839 | 114 ft | 13 kts | 59° |
| 2026-05-04 14:19 | 55.95039 | -3.36565 | 114 ft | 13 kts | 58° |
| 2026-05-04 14:19 | 55.95084 | -3.36432 | 113 ft | 12 kts | 59° |
| 2026-05-04 14:19 | 55.95127 | -3.36304 | 114 ft | 12 kts | 59° |
| 2026-05-04 14:19 | 55.95134 | -3.36200 | 115 ft | 9 kts | 111° |
| 2026-05-04 14:20 | 55.95111 | -3.36094 | 113 ft | 9 kts | 111° |
| 2026-05-04 14:20 | 55.95089 | -3.35978 | 114 ft | 10 kts | 109° |
| 2026-05-04 14:20 | 55.95056 | -3.35869 | 113 ft | 9 kts | 123° |
| 2026-05-04 14:21 | 55.94966 | -3.35860 | 113 ft | 4 kts | 193° |
| 2026-05-04 14:21 | 55.94943 | -3.35867 | 115 ft | 2 kts | 191° |
| 2026-05-04 14:21 | 55.94924 | -3.35877 | 112 ft | 1 kts | 199° |
| 2026-05-04 14:21 | 55.94921 | -3.35879 | 113 ft | 1 kts | 202° |
| 2026-05-04 14:22 | 55.94900 | -3.35900 | 115 ft | 6 kts | 210° |
| 2026-05-04 14:22 | 55.94880 | -3.35919 | 115 ft | 1 kts | 209° |
| 2026-05-04 14:22 | 55.94874 | -3.35925 | 114 ft | 1 kts | 210° |
| 2026-05-04 14:22 | 55.94866 | -3.35933 | 112 ft | 2 kts | 210° |
| 2026-05-04 14:23 | 55.94860 | -3.35939 | 113 ft | 0 kts | 209° |